createdAt,value
2022-08-03T04:56:29.232Z,7.50
2022-08-03T04:58:55.754Z,6.93
2022-08-03T05:01:22.924Z,7.05
2022-08-03T05:03:49.503Z,6.80
2022-08-03T05:06:16.233Z,6.60
2022-08-03T05:08:46.857Z,6.97
2022-08-03T05:11:16.243Z,7.10
2022-08-03T05:13:43.378Z,6.90
2022-08-03T05:16:10.032Z,7.03
2022-08-03T05:18:36.740Z,6.32
2022-08-03T05:21:04.043Z,7.55
2022-08-03T05:23:30.775Z,7.17
2022-08-03T05:25:57.390Z,6.82
2022-08-03T05:28:23.932Z,6.90
2022-08-03T05:30:50.386Z,6.68
2022-08-03T05:33:16.941Z,7.47
2022-08-03T05:35:55.818Z,6.70
2022-08-03T05:38:34.932Z,6.38
2022-08-03T05:41:22.615Z,7.22
2022-08-03T05:43:54.067Z,6.72
2022-08-03T05:46:22.324Z,6.10
2022-08-03T05:48:48.834Z,6.40
2022-08-03T05:51:15.366Z,6.05
2022-08-03T05:53:42.761Z,6.57
2022-08-03T05:56:14.295Z,7.00
2022-08-03T05:58:52.457Z,6.85
2022-08-03T06:01:21.720Z,6.63
2022-08-03T06:03:52.134Z,6.63
2022-08-03T06:06:18.794Z,6.78
2022-08-03T06:08:46.049Z,6.45
2022-08-03T06:11:12.920Z,6.53
2022-08-03T06:13:39.652Z,6.97
2022-08-03T06:16:06.179Z,6.05
2022-08-03T06:18:32.668Z,6.10
2022-08-03T06:21:14.048Z,6.07
2022-08-03T06:23:52.812Z,6.25
2022-08-03T06:26:20.136Z,6.50
2022-08-03T06:28:53.284Z,6.13
2022-08-03T06:31:22.768Z,6.40
2022-08-03T06:34:32.953Z,5.95
2022-08-03T06:36:35.969Z,5.97
2022-08-03T06:39:02.559Z,6.10
2022-08-03T06:41:29.077Z,6.13
2022-08-03T06:44:03.882Z,5.95
2022-08-03T06:46:30.846Z,6.22
2022-08-03T06:48:57.424Z,6.20
2022-08-03T06:52:02.604Z,5.70
2022-08-03T06:54:10.978Z,5.85
2022-08-03T06:56:37.521Z,5.90
2022-08-03T06:59:03.993Z,6.72
2022-08-03T07:01:30.569Z,6.35
2022-08-03T07:03:57.198Z,6.50
2022-08-03T07:06:23.677Z,6.22
2022-08-03T07:08:52.898Z,6.30
2022-08-03T07:11:21.005Z,5.90
2022-08-03T07:13:47.480Z,6.40
2022-08-03T07:16:14.109Z,6.87
2022-08-03T07:18:40.776Z,6.25
2022-08-03T07:21:09.125Z,6.40
2022-08-03T07:23:35.570Z,6.55
2022-08-03T07:26:02.138Z,6.88
2022-08-03T07:28:28.605Z,6.70
2022-08-03T07:30:55.095Z,6.32
2022-08-03T07:33:21.625Z,6.55
2022-08-03T07:35:48.261Z,6.85
2022-08-03T07:38:14.737Z,6.82
2022-08-03T07:40:46.031Z,6.37
2022-08-03T07:43:12.906Z,7.00
2022-08-03T07:45:39.542Z,6.85
2022-08-03T07:48:11.632Z,6.32
2022-08-03T07:50:38.838Z,6.97
2022-08-03T07:53:05.330Z,7.17
2022-08-03T07:55:31.836Z,6.70
2022-08-03T07:58:21.987Z,7.13
2022-08-03T08:00:53.517Z,7.05
2022-08-03T08:03:21.817Z,6.65
2022-08-03T08:05:48.748Z,6.80
2022-08-03T08:08:15.449Z,7.00
2022-08-03T08:10:41.925Z,7.60
2022-08-03T08:13:24.613Z,6.97
2022-08-03T08:15:51.100Z,7.03
2022-08-03T08:18:18.509Z,6.90
2022-08-03T08:20:45.025Z,6.88
2022-08-03T08:23:38.172Z,6.88
2022-08-03T08:25:58.396Z,7.07
2022-08-03T08:28:32.398Z,7.53
2022-08-03T08:31:00.261Z,6.77
2022-08-03T08:33:37.215Z,7.53
2022-08-03T08:36:13.306Z,7.25
2022-08-03T08:38:42.647Z,6.93
2022-08-03T08:41:10.924Z,7.80
2022-08-03T08:43:37.570Z,7.30
2022-08-03T08:46:05.528Z,6.57
2022-08-03T08:48:32.039Z,7.28
2022-08-03T08:51:00.914Z,7.70
2022-08-03T08:53:28.937Z,7.13
2022-08-03T08:56:00.891Z,6.47
2022-08-03T08:58:35.337Z,6.80
2022-08-03T09:01:02.030Z,6.80
2022-08-03T09:03:30.008Z,7.63
2022-08-03T09:05:58.467Z,6.93
2022-08-03T09:08:25.197Z,7.20
2022-08-03T09:10:51.914Z,7.10
2022-08-03T09:13:18.534Z,7.47
2022-08-03T09:16:00.877Z,7.72
2022-08-03T09:18:32.899Z,7.60
2022-08-03T09:21:32.270Z,7.10
2022-08-03T09:24:03.875Z,6.90
2022-08-03T09:26:31.910Z,6.32
2022-08-03T09:29:04.910Z,7.18
2022-08-03T09:31:39.680Z,6.55
2022-08-03T09:34:11.844Z,6.90
2022-08-03T09:36:43.831Z,7.05
2022-08-03T09:39:12.701Z,6.78
2022-08-03T09:42:04.842Z,7.13
2022-08-03T09:44:42.279Z,6.10
2022-08-03T09:47:14.485Z,6.93
2022-08-03T09:49:42.128Z,6.28
2022-08-03T09:52:38.254Z,6.50
2022-08-03T09:56:33.318Z,6.45
2022-08-03T09:58:08.298Z,6.93
2022-08-03T10:00:53.858Z,7.13
2022-08-03T10:03:20.529Z,6.80
2022-08-03T10:05:46.997Z,7.00
2022-08-03T10:08:18.293Z,6.55
2022-08-03T10:10:48.925Z,6.43
2022-08-03T10:13:19.588Z,6.53
2022-08-03T10:16:23.117Z,6.38
2022-08-03T10:18:33.269Z,6.43
2022-08-03T10:21:04.010Z,6.55
2022-08-03T10:23:34.534Z,6.55
2022-08-03T10:26:04.162Z,6.73
2022-08-03T10:28:44.971Z,6.50
2022-08-03T10:31:13.813Z,6.47
2022-08-03T10:33:51.040Z,5.95
2022-08-03T10:36:21.178Z,6.45
2022-08-03T10:38:55.210Z,6.50
2022-08-03T10:41:23.845Z,5.55
2022-08-03T10:44:07.016Z,5.47
2022-08-03T10:46:34.510Z,5.20
2022-08-03T10:49:01.520Z,5.13
2022-08-03T10:51:31.988Z,5.63
2022-08-03T10:54:02.099Z,5.20
2022-08-03T10:56:54.261Z,5.38
2022-08-03T10:59:58.570Z,5.30
2022-08-03T11:03:03.587Z,5.82
2022-08-03T11:05:31.688Z,4.70
2022-08-03T11:08:23.091Z,5.60
2022-08-03T11:10:51.059Z,5.10
2022-08-03T11:13:19.695Z,5.03
2022-08-03T11:15:47.942Z,4.70
2022-08-03T11:18:15.253Z,4.80
2022-08-03T11:20:49.595Z,5.13
2022-08-03T11:23:18.201Z,5.22
2022-08-03T11:26:19.012Z,4.68
2022-08-03T11:28:47.222Z,5.05
2022-08-03T11:31:48.055Z,4.80
2022-08-03T11:34:11.142Z,4.60
2022-08-03T11:37:19.097Z,4.30
2022-08-03T11:39:47.440Z,4.05
2022-08-03T11:42:23.305Z,4.55
2022-08-03T11:44:54.359Z,4.37
2022-08-03T11:47:21.950Z,4.43
2022-08-03T11:49:49.973Z,4.65
2022-08-03T11:52:17.805Z,4.70
2022-08-03T11:54:44.507Z,5.00
2022-08-03T11:57:11.030Z,4.47
2022-08-03T11:59:38.835Z,4.65
2022-08-03T12:02:12.621Z,4.43
2022-08-03T12:04:51.989Z,4.90
2022-08-03T12:07:24.475Z,4.72
2022-08-03T12:10:15.039Z,5.17
2022-08-03T12:12:46.444Z,4.90
2022-08-03T12:15:13.499Z,4.95
2022-08-03T12:17:41.548Z,5.35
2022-08-03T12:20:10.079Z,5.10
2022-08-03T12:22:38.932Z,4.93
2022-08-03T12:25:08.965Z,5.00
2022-08-03T12:27:35.854Z,4.75
2022-08-03T12:30:02.902Z,4.88
2022-08-03T12:32:30.037Z,4.50
2022-08-03T12:35:05.841Z,4.53
2022-08-03T12:37:32.742Z,4.55
2022-08-03T12:40:08.021Z,5.18
2022-08-03T12:42:38.276Z,4.93
2022-08-03T12:45:20.787Z,5.22
2022-08-03T12:48:09.208Z,4.93
2022-08-03T12:50:37.379Z,5.13
2022-08-03T12:53:08.857Z,4.75
2022-08-03T12:55:57.912Z,4.75
2022-08-03T12:58:33.784Z,4.85
2022-08-03T13:01:01.648Z,4.47
2022-08-03T13:03:42.735Z,4.53
2022-08-03T13:06:17.892Z,4.90
2022-08-03T13:08:45.956Z,4.45
2022-08-03T13:11:22.631Z,4.55
2022-08-03T13:13:53.881Z,4.90
2022-08-03T13:16:22.005Z,4.93
2022-08-03T13:18:49.472Z,4.70
2022-08-03T17:18:25.342Z,4.40
2022-08-03T17:20:52.357Z,5.03
2022-08-03T17:23:39.916Z,4.20
2022-08-03T17:26:20.146Z,4.50
2022-08-03T17:28:56.508Z,4.28
2022-08-03T17:31:31.752Z,4.30
2022-08-03T17:34:01.101Z,4.53
2022-08-03T17:36:47.610Z,4.50
2022-08-03T17:39:27.026Z,4.55
2022-08-03T17:42:05.255Z,4.38
2022-08-03T17:44:52.777Z,4.10
2022-08-03T17:47:19.349Z,4.15
2022-08-03T17:49:48.229Z,4.38
2022-08-03T17:52:24.059Z,4.50
2022-08-03T17:55:55.170Z,4.90
2022-08-03T17:58:02.448Z,4.80
2022-08-03T18:00:51.801Z,4.65
2022-08-03T18:03:28.251Z,5.07
2022-08-03T18:06:11.084Z,4.60
2022-08-03T18:08:45.183Z,4.80
2022-08-03T18:11:15.250Z,4.33
2022-08-03T18:13:57.568Z,4.63
2022-08-03T18:16:33.551Z,4.57
2022-08-03T18:19:09.657Z,4.60
2022-08-03T18:22:02.782Z,4.25
2022-08-03T18:24:29.241Z,5.00
2022-08-03T18:26:57.530Z,4.68
2022-08-03T18:29:25.299Z,4.65
2022-08-03T18:32:02.469Z,4.63
2022-08-03T18:34:32.923Z,4.75
2022-08-03T18:37:04.349Z,4.97
2022-08-03T18:39:49.377Z,5.30
2022-08-03T18:42:19.539Z,4.97
2022-08-03T18:44:54.343Z,5.00
2022-08-03T18:47:52.573Z,4.60
2022-08-03T18:50:30.580Z,4.60
2022-08-03T18:56:18.065Z,5.70
2022-08-03T18:59:05.380Z,5.85
2022-08-03T19:02:00.743Z,5.38
2022-08-03T19:04:32.915Z,5.33
2022-08-03T19:07:07.905Z,5.47
2022-08-03T19:09:44.403Z,4.88
2022-08-03T19:15:12.898Z,4.70
2022-08-03T19:17:50.101Z,5.00
2022-08-03T19:20:22.394Z,4.70
2022-08-03T19:22:52.161Z,5.32
2022-08-03T19:25:18.938Z,4.82
2022-08-03T19:27:47.109Z,4.63
2022-08-03T19:30:35.660Z,5.00
2022-08-03T19:33:11.056Z,5.25
2022-08-03T19:35:55.089Z,4.70
2022-08-03T19:38:28.399Z,4.88
2022-08-03T19:41:01.600Z,5.05
2022-08-03T19:43:49.349Z,5.17
2022-08-03T19:46:31.145Z,4.80
2022-08-03T19:49:15.819Z,4.72
2022-08-03T21:13:00.669Z,5.35
2022-08-03T21:13:08.888Z,4.60
